Time;durP1;ratioP1;P1;durP2;ratioP2;P2;SDS_P1;SDS_P2;PMS_P1;PMS_P2;Temp;Humidity;BMP_temperature;BMP_pressure;BME280_temperature;BME280_humidity;BME280_pressure;Samples;Min_cycle;Max_cycle;Signal;HPM_P1;HPM_P2
2022/09/01 00:01:19;;;;;;;2.90;2.30;;;18.10;99.90;;;;;;5074432;28;20020;-48
2022/09/01 00:03:47;;;;;;;2.83;2.63;;;18.10;99.80;;;;;;5074160;28;20082;-48
2022/09/01 00:06:14;;;;;;;4.05;2.70;;;18.00;99.90;;;;;;5074377;28;20028;-45
2022/09/01 00:08:40;;;;;;;2.05;1.95;;;18.10;99.80;;;;;;5074898;28;20021;-42
2022/09/01 00:11:05;;;;;;;3.47;2.38;;;18.00;99.80;;;;;;5074394;28;20430;-46
2022/09/01 00:13:32;;;;;;;2.33;2.03;;;18.00;99.90;;;;;;5074011;28;20063;-44
2022/09/01 00:16:00;;;;;;;2.22;1.88;;;18.00;99.90;;;;;;5074186;28;20036;-45
2022/09/01 00:18:26;;;;;;;2.40;2.15;;;18.00;99.90;;;;;;5074224;28;20391;-46
2022/09/01 00:20:51;;;;;;;5.90;1.75;;;18.00;99.90;;;;;;5074010;28;20033;-44
2022/09/01 00:23:16;;;;;;;4.00;2.00;;;17.90;99.90;;;;;;5073869;28;20024;-42
2022/09/01 00:25:42;;;;;;;2.80;1.88;;;17.80;99.90;;;;;;5074064;28;20028;-46
2022/09/01 00:28:07;;;;;;;2.35;2.17;;;17.80;99.90;;;;;;5073995;28;20039;-44
2022/09/01 00:30:33;;;;;;;2.58;2.00;;;17.80;99.90;;;;;;5074737;28;20028;-43
2022/09/01 00:32:58;;;;;;;5.78;2.22;;;17.80;99.90;;;;;;5073620;28;20115;-43
2022/09/01 00:35:24;;;;;;;2.15;2.05;;;17.70;99.90;;;;;;5073873;28;20089;-43
2022/09/01 00:37:50;;;;;;;4.85;1.98;;;17.70;99.90;;;;;;5073755;28;20114;-43
2022/09/01 00:40:16;;;;;;;3.72;2.30;;;17.70;99.90;;;;;;5073828;28;20104;-47
2022/09/01 00:42:43;;;;;;;3.35;2.33;;;17.60;99.90;;;;;;5073559;28;20024;-44
2022/09/01 00:45:09;;;;;;;2.95;1.70;;;17.60;99.90;;;;;;5072445;28;20510;-45
2022/09/01 00:47:35;;;;;;;2.92;1.90;;;17.50;99.90;;;;;;5073943;28;20028;-45
2022/09/01 00:50:06;;;;;;;3.55;2.42;;;17.50;99.90;;;;;;5073626;28;20423;-47
2022/09/01 00:52:42;;;;;;;1.92;1.83;;;17.50;99.90;;;;;;5073214;28;20039;-45
2022/09/01 00:55:20;;;;;;;;;;;17.60;99.90;;;;;;5074112;28;20029;-43
2022/09/01 00:57:46;;;;;;;5.57;2.53;;;17.50;99.90;;;;;;5073550;28;20222;-47
2022/09/01 01:00:20;;;;;;;1.83;1.73;;;17.40;99.90;;;;;;5073320;28;20020;-44
2022/09/01 01:02:47;;;;;;;2.35;2.15;;;17.40;99.90;;;;;;5073188;28;20500;-47
2022/09/01 01:05:14;;;;;;;2.15;1.95;;;17.40;99.90;;;;;;5073233;28;20025;-48
2022/09/01 01:07:43;;;;;;;5.22;2.92;;;17.40;99.90;;;;;;5073496;28;20025;-41
2022/09/01 01:10:11;;;;;;;2.70;2.25;;;17.30;99.90;;;;;;5073488;28;20499;-45
2022/09/01 01:12:42;;;;;;;4.15;2.00;;;17.30;99.90;;;;;;5072872;28;20032;-45
2022/09/01 01:15:09;;;;;;;4.30;2.05;;;17.30;99.90;;;;;;5073158;28;20103;-44
2022/09/01 01:17:35;;;;;;;7.22;2.47;;;17.30;99.90;;;;;;5073089;28;20032;-45
2022/09/01 01:23:02;;;;;;;;;;;17.20;99.90;;;;;;5073566;28;20036;-46
2022/09/01 01:25:33;;;;;;;2.00;1.90;;;17.20;99.90;;;;;;5072933;28;19905;-46
2022/09/01 01:28:24;;;;;;;4.18;1.92;;;17.20;99.90;;;;;;5072957;28;20024;-42
2022/09/01 01:30:56;;;;;;;2.25;2.00;;;17.10;99.90;;;;;;5072815;28;20487;-44
2022/09/01 01:33:25;;;;;;;4.65;2.03;;;17.10;99.90;;;;;;5072418;28;20491;-44
2022/09/01 01:35:52;;;;;;;2.90;2.25;;;17.10;99.90;;;;;;5072757;28;20070;-44
2022/09/01 01:38:21;;;;;;;2.50;2.25;;;17.00;99.90;;;;;;5072695;28;20020;-46
2022/09/01 01:40:48;;;;;;;2.92;2.20;;;17.00;99.90;;;;;;5054817;28;20448;-45
2022/09/01 01:43:18;;;;;;;2.47;2.05;;;17.10;99.90;;;;;;5072255;28;20237;-45
2022/09/01 01:45:52;;;;;;;3.10;1.88;;;17.00;99.90;;;;;;5072519;28;20025;-44
2022/09/01 01:48:22;;;;;;;1.90;1.63;;;17.00;99.90;;;;;;5072898;28;20040;-43
2022/09/01 01:50:52;;;;;;;7.28;2.58;;;16.90;99.90;;;;;;5072317;28;20032;-44
2022/09/01 01:53:18;;;;;;;9.27;2.40;;;17.20;99.90;;;;;;5072130;28;20096;-44
2022/09/01 01:55:48;;;;;;;2.13;2.03;;;16.90;99.90;;;;;;5072082;28;20086;-41
2022/09/01 01:58:14;;;;;;;2.97;1.73;;;16.90;99.90;;;;;;5072078;28;20036;-41
2022/09/01 02:00:43;;;;;;;5.25;2.33;;;16.80;99.90;;;;;;5072469;28;20024;-43
2022/09/01 02:03:11;;;;;;;2.88;2.00;;;16.80;99.90;;;;;;5071861;28;20019;-45
2022/09/01 02:05:38;;;;;;;2.17;2.08;;;16.80;99.90;;;;;;5072187;28;20021;-47
2022/09/01 02:08:07;;;;;;;6.38;2.20;;;16.80;99.90;;;;;;5072155;28;20141;-45
2022/09/01 02:10:37;;;;;;;2.50;1.90;;;16.70;99.90;;;;;;5072069;28;20036;-47
2022/09/01 02:13:06;;;;;;;2.65;2.33;;;16.70;99.90;;;;;;5071803;28;20032;-44
2022/09/01 02:15:34;;;;;;;6.50;2.20;;;16.70;99.90;;;;;;5071941;28;20024;-46
2022/09/01 02:18:00;;;;;;;1.98;1.83;;;16.70;99.90;;;;;;5072071;28;20400;-45
2022/09/01 02:20:31;;;;;;;6.30;1.88;;;16.70;99.90;;;;;;5071750;28;20025;-46
2022/09/01 02:23:01;;;;;;;4.97;2.20;;;16.70;99.90;;;;;;5071664;28;20020;-44
2022/09/01 02:25:27;;;;;;;10.25;2.47;;;16.70;99.90;;;;;;5071760;28;20051;-44
2022/09/01 02:27:54;;;;;;;3.30;1.95;;;16.70;99.90;;;;;;5071857;28;20048;-44
2022/09/01 02:30:23;;;;;;;2.38;2.00;;;16.70;99.90;;;;;;5072048;28;20067;-44
2022/09/01 02:32:49;;;;;;;6.95;1.88;;;16.70;99.90;;;;;;5071911;28;20021;-44
2022/09/01 02:35:15;;;;;;;3.78;1.80;;;16.60;99.90;;;;;;5071858;28;20487;-44
2022/09/01 02:37:42;;;;;;;4.15;2.22;;;16.60;99.90;;;;;;5071788;28;20052;-43
2022/09/01 02:40:09;;;;;;;2.70;2.38;;;16.50;99.90;;;;;;5072145;28;20157;-46
2022/09/01 02:42:39;;;;;;;1.80;1.70;;;16.70;99.90;;;;;;5071362;28;20021;-44
2022/09/01 02:45:10;;;;;;;3.35;2.03;;;16.50;99.90;;;;;;5071598;28;20029;-46
2022/09/01 02:47:39;;;;;;;4.80;2.00;;;16.60;99.90;;;;;;5071769;28;20016;-45
2022/09/01 02:50:05;;;;;;;3.10;2.30;;;16.50;99.90;;;;;;5071552;28;20074;-45
2022/09/01 02:52:36;;;;;;;2.40;1.70;;;16.50;99.90;;;;;;5071189;28;20032;-47
2022/09/01 02:55:01;;;;;;;1.77;1.60;;;16.50;99.90;;;;;;5071853;28;20039;-45
2022/09/01 02:57:28;;;;;;;2.83;1.80;;;16.50;99.90;;;;;;5071962;28;20396;-50
2022/09/01 02:59:54;;;;;;;1.83;1.73;;;16.50;99.90;;;;;;5071637;28;20248;-47
2022/09/01 03:02:21;;;;;;;4.00;1.70;;;16.50;99.90;;;;;;5071151;28;20384;-44
2022/09/01 03:04:54;;;;;;;2.30;1.85;;;16.50;99.90;;;;;;5071370;28;20396;-45
2022/09/01 03:07:22;;;;;;;6.63;2.10;;;16.40;99.90;;;;;;5071441;28;20067;-45
2022/09/01 03:09:48;;;;;;;2.83;2.25;;;16.40;99.90;;;;;;5074584;28;20023;-46
2022/09/01 03:12:14;;;;;;;3.65;1.70;;;16.40;99.90;;;;;;5075145;28;20400;-44
2022/09/01 03:14:39;;;;;;;1.80;1.70;;;16.30;99.90;;;;;;5075541;28;20033;-44
2022/09/01 03:17:05;;;;;;;3.72;2.00;;;16.30;99.90;;;;;;5075335;28;20082;-45
2022/09/01 03:19:40;;;;;;;4.47;1.90;;;16.30;99.90;;;;;;5075247;28;20496;-45
2022/09/01 03:22:06;;;;;;;;;;;16.30;99.90;;;;;;5075442;28;20675;-44
2022/09/01 03:24:32;;;;;;;3.00;1.80;;;16.30;99.90;;;;;;5075608;28;19904;-44
2022/09/01 03:26:57;;;;;;;2.40;2.10;;;16.30;99.90;;;;;;5075124;28;20381;-45
2022/09/01 03:29:23;;;;;;;3.17;2.03;;;16.30;99.90;;;;;;5075118;28;20492;-44
2022/09/01 03:31:49;;;;;;;5.00;1.90;;;16.30;99.90;;;;;;5074817;28;20150;-43
2022/09/01 03:34:16;;;;;;;4.10;2.28;;;16.20;99.90;;;;;;5075349;28;20067;-44
2022/09/01 03:36:48;;;;;;;1.92;1.80;;;16.20;99.90;;;;;;5075011;28;20115;-43
2022/09/01 03:39:15;;;;;;;2.53;2.10;;;16.20;99.90;;;;;;5058084;28;20099;-44
2022/09/01 03:41:40;;;;;;;4.40;1.50;;;16.20;99.90;;;;;;5075238;28;20105;-44
2022/09/01 03:44:08;;;;;;;3.60;1.83;;;16.10;99.90;;;;;;5074621;28;20099;-43
2022/09/01 03:46:35;;;;;;;4.70;2.33;;;16.10;99.90;;;;;;5074736;28;20480;-43
2022/09/01 03:49:04;;;;;;;2.22;2.08;;;16.10;99.90;;;;;;5074648;28;20035;-44
2022/09/01 03:51:30;;;;;;;2.80;2.13;;;16.10;99.90;;;;;;5075492;28;20028;-44
2022/09/01 03:53:57;;;;;;;2.65;1.80;;;16.10;99.90;;;;;;5074469;28;20048;-45
2022/09/01 03:56:26;;;;;;;4.13;2.25;;;15.80;99.90;;;;;;5074659;28;20024;-44
2022/09/01 03:58:52;;;;;;;3.88;2.10;;;16.00;99.90;;;;;;5074098;28;20476;-44
2022/09/01 04:01:18;;;;;;;8.82;2.47;;;16.00;99.90;;;;;;5074284;28;20032;-42
2022/09/01 04:03:46;;;;;;;3.38;2.60;;;16.00;99.90;;;;;;5074234;28;20029;-44
2022/09/01 04:06:12;;;;;;;2.40;2.20;;;16.00;99.90;;;;;;5074432;28;20029;-41
2022/09/01 04:08:38;;;;;;;2.72;1.85;;;16.00;99.90;;;;;;5074189;28;20480;-44
2022/09/01 04:11:12;;;;;;;3.47;2.08;;;16.10;99.90;;;;;;5074263;28;20089;-45
2022/09/01 04:13:40;;;;;;;4.68;1.88;;;16.00;99.90;;;;;;5074019;28;20017;-44
2022/09/01 04:18:03;;;;;;;3.67;1.95;;;16.00;99.90;;;;;;5074100;28;20403;-43
2022/09/01 04:18:54;;;;;;;5.13;2.47;;;16.00;99.90;;;;;;5073596;28;20036;-44
2022/09/01 04:21:20;;;;;;;4.82;2.10;;;16.00;99.90;;;;;;5074175;28;20391;-45
2022/09/01 04:23:47;;;;;;;6.75;2.72;;;16.00;99.90;;;;;;5073748;28;20021;-42
2022/09/01 04:26:19;;;;;;;3.05;2.10;;;16.00;99.90;;;;;;5074577;28;20021;-50
2022/09/01 04:28:47;;;;;;;3.03;2.72;;;16.00;99.90;;;;;;5074459;28;20387;-43
2022/09/01 04:31:20;;;;;;;2.40;2.20;;;15.90;99.90;;;;;;5073939;28;20028;-44
2022/09/01 04:33:48;;;;;;;4.15;2.20;;;16.00;99.90;;;;;;5073592;28;20020;-44
2022/09/01 04:36:18;;;;;;;6.20;1.90;;;16.00;99.90;;;;;;5073727;28;20039;-45
2022/09/01 04:38:48;;;;;;;3.75;2.20;;;16.10;99.90;;;;;;5073627;28;20035;-43
2022/09/01 04:41:16;;;;;;;3.63;2.13;;;16.10;99.90;;;;;;5073788;28;20055;-44
2022/09/01 04:43:44;;;;;;;3.60;2.35;;;16.10;99.90;;;;;;5073523;28;20017;-46
2022/09/01 04:46:11;;;;;;;5.25;2.20;;;16.00;99.90;;;;;;5073656;28;20108;-44
2022/09/01 04:48:37;;;;;;;3.05;1.98;;;16.10;99.90;;;;;;5073537;28;20099;-43
2022/09/01 04:51:09;;;;;;;2.65;2.33;;;16.10;99.90;;;;;;5073396;28;20487;-44
2022/09/01 04:53:38;;;;;;;3.20;2.15;;;16.10;99.90;;;;;;5073429;28;20383;-46
2022/09/01 04:56:06;;;;;;;4.50;2.20;;;16.10;99.90;;;;;;5073502;28;20021;-42
2022/09/01 04:58:32;;;;;;;7.20;1.70;;;16.10;99.90;;;;;;5072744;28;20544;-45
2022/09/01 05:00:59;;;;;;;7.57;2.20;;;16.00;99.90;;;;;;5073282;28;20029;-45
2022/09/01 05:03:24;;;;;;;5.00;2.58;;;16.00;99.90;;;;;;5072948;28;20028;-45
2022/09/01 05:05:52;;;;;;;3.70;2.35;;;16.10;99.90;;;;;;5073272;28;20021;-43
2022/09/01 05:08:21;;;;;;;5.32;2.03;;;16.10;99.90;;;;;;5073232;28;20048;-44
2022/09/01 05:10:52;;;;;;;3.13;2.40;;;16.00;99.90;;;;;;5073215;28;20081;-41
2022/09/01 05:13:19;;;;;;;8.43;2.00;;;16.10;99.90;;;;;;5072879;28;20028;-39
2022/09/01 05:15:46;;;;;;;7.35;2.20;;;16.10;99.90;;;;;;5073068;28;20052;-44
2022/09/01 05:18:22;;;;;;;3.30;2.08;;;16.10;99.90;;;;;;5054879;28;20606;-42
2022/09/01 05:20:51;;;;;;;5.18;2.30;;;16.20;99.90;;;;;;5072995;28;20472;-44
2022/09/01 05:23:18;;;;;;;5.03;2.47;;;16.50;99.90;;;;;;5072522;28;20482;-43
2022/09/01 05:25:47;;;;;;;2.97;2.38;;;16.70;99.90;;;;;;5054913;28;20036;-43
2022/09/01 05:28:14;;;;;;;1.90;1.80;;;16.70;99.90;;;;;;5072676;28;20071;-44
2022/09/01 05:30:41;;;;;;;3.83;2.28;;;16.60;99.90;;;;;;5072183;28;20109;-45
2022/09/01 05:33:10;;;;;;;2.33;2.13;;;16.50;99.90;;;;;;5072246;28;20021;-42
2022/09/01 05:35:40;;;;;;;7.85;2.85;;;16.40;99.90;;;;;;5072663;28;20027;-44
2022/09/01 05:38:09;;;;;;;5.28;3.10;;;16.40;99.90;;;;;;5072482;28;20073;-44
2022/09/01 05:40:39;;;;;;;6.35;2.30;;;16.40;99.90;;;;;;5072497;28;20492;-44
2022/09/01 05:43:06;;;;;;;3.63;2.60;;;16.40;99.90;;;;;;5072328;28;20025;-45
2022/09/01 05:45:34;;;;;;;6.03;2.17;;;16.40;99.90;;;;;;5072471;28;20028;-44
2022/09/01 05:48:02;;;;;;;2.92;2.20;;;16.80;99.90;;;;;;5072481;28;20104;-44
2022/09/01 05:50:27;;;;;;;3.33;2.00;;;16.40;99.90;;;;;;5072345;28;20074;-43
2022/09/01 05:52:53;;;;;;;6.50;2.53;;;16.40;99.90;;;;;;5072068;28;20041;-44
2022/09/01 05:55:18;;;;;;;2.60;2.33;;;16.40;99.90;;;;;;5054320;28;20633;-43
2022/09/01 05:57:46;;;;;;;5.38;2.10;;;16.40;99.90;;;;;;5072259;28;20074;-44
2022/09/01 06:00:12;;;;;;;3.85;2.10;;;16.50;99.90;;;;;;5072143;28;20029;-44
2022/09/01 06:02:39;;;;;;;3.00;2.20;;;16.50;99.90;;;;;;5071911;28;20561;-44
2022/09/01 06:05:06;;;;;;;2.65;2.10;;;16.60;99.90;;;;;;5072010;28;20377;-45
2022/09/01 06:07:32;;;;;;;4.47;2.28;;;16.70;99.90;;;;;;5072006;28;20028;-44
2022/09/01 06:09:59;;;;;;;6.10;2.50;;;16.70;99.90;;;;;;5072035;28;20500;-44
2022/09/01 06:12:25;;;;;;;3.30;2.42;;;16.80;99.90;;;;;;5071672;28;20063;-46
2022/09/01 06:14:53;;;;;;;4.40;2.00;;;16.80;99.90;;;;;;5071907;28;20020;-46
2022/09/01 06:17:23;;;;;;;2.85;2.35;;;16.80;99.90;;;;;;5071859;28;20111;-44
2022/09/01 06:19:54;;;;;;;6.63;2.47;;;16.80;99.90;;;;;;5071883;28;20016;-43
2022/09/01 06:22:20;;;;;;;8.52;2.90;;;16.80;99.90;;;;;;5071402;28;20016;-46
2022/09/01 06:24:46;;;;;;;4.47;2.10;;;16.90;99.90;;;;;;5072132;28;20028;-47
2022/09/01 06:27:17;;;;;;;5.18;2.05;;;16.90;99.90;;;;;;5071734;28;20027;-42
2022/09/01 06:29:44;;;;;;;5.22;2.13;;;17.00;99.90;;;;;;5071729;28;20028;-44
2022/09/01 06:32:11;;;;;;;7.35;2.53;;;17.00;99.90;;;;;;5071295;28;20411;-47
2022/09/01 06:34:43;;;;;;;3.47;2.10;;;17.00;99.90;;;;;;5071743;28;20501;-45
2022/09/01 06:37:10;;;;;;;7.22;2.20;;;17.10;99.90;;;;;;5071474;28;20028;-44
2022/09/01 06:39:36;;;;;;;4.18;2.42;;;17.00;99.90;;;;;;5071472;28;20020;-43
2022/09/01 06:42:01;;;;;;;3.17;2.50;;;17.10;99.90;;;;;;5071182;28;20537;-44
2022/09/01 06:44:30;;;;;;;4.90;2.30;;;17.10;99.90;;;;;;5071391;28;20073;-44
2022/09/01 06:46:56;;;;;;;1.98;1.88;;;17.10;99.90;;;;;;5071506;28;20480;-43
2022/09/01 06:49:31;;;;;;;9.35;2.30;;;17.20;99.90;;;;;;5071332;28;20483;-45
2022/09/01 06:51:58;;;;;;;3.00;1.80;;;17.40;99.90;;;;;;5070876;28;20519;-44
2022/09/01 06:54:24;;;;;;;6.03;2.10;;;17.60;99.90;;;;;;5071471;28;20044;-45
2022/09/01 06:56:50;;;;;;;8.60;1.88;;;18.00;99.90;;;;;;5071247;28;20107;-44
2022/09/01 06:59:15;;;;;;;5.25;2.15;;;18.30;99.90;;;;;;5070775;28;20104;-45
2022/09/01 07:01:41;;;;;;;7.95;1.98;;;18.30;99.90;;;;;;5071276;28;20107;-42
2022/09/01 07:04:07;;;;;;;6.25;2.20;;;18.40;99.90;;;;;;5071259;28;20020;-45
2022/09/01 07:06:34;;;;;;;2.95;2.03;;;18.40;99.90;;;;;;5071367;28;20021;-45
2022/09/01 07:09:00;;;;;;;2.95;1.75;;;18.50;99.90;;;;;;5071316;28;20379;-45
2022/09/01 07:11:29;;;;;;;4.30;2.10;;;19.20;99.90;;;;;;5071204;28;20365;-45
2022/09/01 07:13:57;;;;;;;2.30;1.90;;;20.00;99.10;;;;;;5070945;28;20158;-45
2022/09/01 07:16:25;;;;;;;2.50;1.60;;;20.40;97.70;;;;;;5071175;28;20601;-44
2022/09/01 07:18:55;;;;;;;5.40;2.40;;;20.20;97.90;;;;;;5071073;28;20404;-42
2022/09/01 07:21:20;;;;;;;1.88;1.67;;;20.00;98.30;;;;;;5071153;28;20487;-46
2022/09/01 07:23:47;;;;;;;3.80;2.10;;;20.00;98.20;;;;;;5070828;28;20033;-43
2022/09/01 07:26:18;;;;;;;6.97;2.47;;;19.70;98.60;;;;;;5070912;28;20065;-43
2022/09/01 07:28:45;;;;;;;4.22;2.10;;;19.50;99.10;;;;;;5070951;28;20035;-45
2022/09/01 07:31:19;;;;;;;8.48;2.28;;;19.40;99.20;;;;;;5070895;28;20031;-42
2022/09/01 07:33:49;;;;;;;2.97;1.60;;;19.40;99.30;;;;;;5070843;28;20499;-43
2022/09/01 07:36:16;;;;;;;1.85;1.75;;;19.50;99.30;;;;;;5052839;28;20021;-45
2022/09/01 07:38:42;;;;;;;4.53;2.20;;;19.50;99.10;;;;;;5070813;28;20021;-42
2022/09/01 07:41:11;;;;;;;6.13;2.40;;;19.50;99.10;;;;;;5052919;28;20495;-46
2022/09/01 07:43:38;;;;;;;2.40;1.95;;;19.50;99.20;;;;;;5071126;28;20031;-44
2022/09/01 07:46:05;;;;;;;2.42;2.10;;;19.20;99.40;;;;;;5071033;28;20047;-44
2022/09/01 07:48:31;;;;;;;3.67;2.47;;;19.40;99.70;;;;;;5070843;28;20107;-45
2022/09/01 07:50:56;;;;;;;4.13;2.28;;;19.50;99.60;;;;;;5070654;28;20064;-47
2022/09/01 07:53:30;;;;;;;5.90;2.33;;;19.40;99.60;;;;;;5070495;28;20024;-46
2022/09/01 07:55:57;;;;;;;3.58;1.50;;;19.40;99.80;;;;;;5074162;28;20020;-45
2022/09/01 07:58:25;;;;;;;5.18;1.92;;;19.30;99.90;;;;;;5073886;28;20052;-44
2022/09/01 08:00:52;;;;;;;4.30;2.08;;;19.30;99.90;;;;;;5074502;28;20013;-43
2022/09/01 08:03:22;;;;;;;7.97;2.33;;;19.40;99.80;;;;;;5074167;28;20043;-44
2022/09/01 08:05:50;;;;;;;4.00;2.42;;;19.50;99.70;;;;;;5074446;28;20028;-47
2022/09/01 08:08:15;;;;;;;4.00;2.40;;;19.50;99.80;;;;;;5074240;28;20069;-42
2022/09/01 08:10:43;;;;;;;5.38;2.20;;;19.60;99.70;;;;;;5074405;28;20489;-45
2022/09/01 08:13:09;;;;;;;5.55;2.30;;;19.60;99.70;;;;;;5074092;28;20020;-44
2022/09/01 08:15:38;;;;;;;3.50;1.80;;;19.60;99.70;;;;;;5074335;28;20031;-43
2022/09/01 08:18:03;;;;;;;2.70;2.45;;;19.70;99.80;;;;;;5056207;28;20024;-45
2022/09/01 08:20:29;;;;;;;4.50;2.10;;;19.70;99.50;;;;;;5074166;28;20031;-43
2022/09/01 08:22:54;;;;;;;6.88;2.58;;;19.80;99.50;;;;;;5074249;28;20017;-43
2022/09/01 08:25:20;;;;;;;2.70;2.47;;;20.00;99.50;;;;;;5074255;28;20099;-45
2022/09/01 08:27:46;;;;;;;6.85;2.58;;;20.20;99.10;;;;;;5074255;28;20476;-47
2022/09/01 08:30:12;;;;;;;2.70;2.13;;;20.50;98.80;;;;;;5073797;28;20024;-43
2022/09/01 08:32:40;;;;;;;4.05;3.20;;;20.70;98.30;;;;;;5073598;28;20029;-45
2022/09/01 08:35:08;;;;;;;6.70;2.42;;;20.80;98.00;;;;;;5073830;28;20036;-45
2022/09/01 08:37:34;;;;;;;8.75;2.30;;;20.80;97.90;;;;;;5073826;28;20495;-43
2022/09/01 08:39:59;;;;;;;5.22;2.90;;;20.70;97.50;;;;;;5075531;28;20031;-44
2022/09/01 08:42:44;;;;;;;2.00;1.90;;;20.80;97.80;;;;;;5075226;28;20044;-46
2022/09/01 08:45:20;;;;;;;5.00;2.47;;;20.80;97.70;;;;;;5055774;28;20119;-46
2022/09/01 08:47:47;;;;;;;7.15;2.05;;;20.90;97.60;;;;;;5073985;28;20467;-43
2022/09/01 08:50:13;;;;;;;5.72;2.20;;;20.90;97.60;;;;;;5073669;28;20025;-45
2022/09/01 08:52:45;;;;;;;6.35;2.50;;;21.00;97.90;;;;;;5055232;28;20033;-44
2022/09/01 08:55:20;;;;;;;4.57;2.70;;;21.00;97.60;;;;;;5073538;28;20016;-48
2022/09/01 08:57:50;;;;;;;2.78;2.33;;;21.30;97.20;;;;;;5074022;28;20437;-47
2022/09/01 09:00:18;;;;;;;4.03;2.22;;;21.30;96.90;;;;;;5073512;28;20074;-45
2022/09/01 09:02:56;;;;;;;2.95;2.55;;;21.10;96.90;;;;;;5073347;28;20024;-41
2022/09/01 09:05:40;;;;;;;3.53;2.30;;;21.40;96.70;;;;;;5072976;28;20020;-44
2022/09/01 09:08:34;;;;;;;2.47;2.27;;;21.30;96.60;;;;;;5073374;28;20035;-46
2022/09/01 09:11:07;;;;;;;3.17;2.22;;;21.30;96.80;;;;;;5073342;28;20067;-47
2022/09/01 09:13:50;;;;;;;6.70;2.22;;;21.20;96.80;;;;;;5072860;28;20036;-47
2022/09/01 09:16:41;;;;;;;4.20;2.25;;;21.90;96.40;;;;;;5055076;28;20502;-44
2022/09/01 09:19:19;;;;;;;5.80;2.30;;;22.50;95.00;;;;;;5063632;28;20090;-42
2022/09/01 09:21:47;;;;;;;6.63;2.20;;;22.60;94.70;;;;;;5073010;28;20031;-41
2022/09/01 09:24:46;;;;;;;8.88;2.28;;;22.50;94.80;;;;;;5073134;28;20105;-44
2022/09/01 09:27:22;;;;;;;4.30;3.30;;;22.20;95.00;;;;;;5073209;28;20169;-44
2022/09/01 09:29:51;;;;;;;4.43;3.13;;;22.10;95.40;;;;;;5073125;28;20021;-43
2022/09/01 09:32:18;;;;;;;6.88;2.20;;;22.20;95.10;;;;;;5054564;28;20028;-43
2022/09/01 09:34:43;;;;;;;3.80;2.05;;;22.40;94.70;;;;;;5072775;28;20143;-43
2022/09/01 09:37:27;;;;;;;10.18;2.17;;;22.60;94.60;;;;;;5072409;28;20040;-43
2022/09/01 09:40:11;;;;;;;3.70;2.40;;;23.00;94.20;;;;;;5072628;28;20020;-46
2022/09/01 09:42:54;;;;;;;8.15;2.03;;;23.40;93.70;;;;;;5072705;28;20020;-46
2022/09/01 09:45:24;;;;;;;1.63;1.52;;;23.80;92.80;;;;;;5072621;28;20485;-45
2022/09/01 09:47:50;;;;;;;4.05;1.90;;;24.10;92.30;;;;;;5072342;28;20055;-43
2022/09/01 09:50:42;;;;;;;4.68;1.77;;;24.20;92.30;;;;;;5072554;28;20032;-44
2022/09/01 09:53:11;;;;;;;7.93;1.90;;;24.50;91.90;;;;;;5073010;28;20450;-45
2022/09/01 09:56:00;;;;;;;7.60;2.15;;;24.80;91.40;;;;;;5072255;28;20100;-43
2022/09/01 09:58:34;;;;;;;3.05;1.83;;;25.30;90.60;;;;;;5071444;28;20036;-47
2022/09/01 10:01:22;;;;;;;5.80;1.90;;;25.20;90.00;;;;;;5054546;28;20077;-46
2022/09/01 10:03:51;;;;;;;2.47;1.95;;;25.00;90.40;;;;;;5059482;28;20032;-43
2022/09/01 10:06:40;;;;;;;6.38;2.55;;;24.80;90.30;;;;;;5072351;28;20539;-45
2022/09/01 10:09:13;;;;;;;5.10;2.00;;;24.50;90.50;;;;;;5072240;28;20051;-43
2022/09/01 10:11:43;;;;;;;4.40;1.63;;;24.40;90.50;;;;;;5072639;28;20055;-46
2022/09/01 10:14:49;;;;;;;3.17;1.80;;;24.20;91.00;;;;;;5071908;28;20035;-42
2022/09/01 10:17:19;;;;;;;2.55;2.35;;;24.20;90.80;;;;;;5058281;28;20036;-47
2022/09/01 10:20:06;;;;;;;2.97;1.98;;;24.50;90.50;;;;;;5071885;28;20438;-46
2022/09/01 10:22:35;;;;;;;3.65;2.10;;;24.40;90.50;;;;;;5071649;28;20089;-45
2022/09/01 10:25:02;;;;;;;2.08;1.92;;;24.00;90.70;;;;;;5071989;28;20476;-43
2022/09/01 10:27:31;;;;;;;5.45;2.15;;;23.80;90.60;;;;;;5071957;28;20040;-46
2022/09/01 10:30:12;;;;;;;3.60;1.80;;;23.60;91.20;;;;;;5071905;28;20078;-46
2022/09/01 10:32:54;;;;;;;3.35;2.15;;;23.50;91.50;;;;;;5071619;28;20377;-43
2022/09/01 10:35:22;;;;;;;6.22;2.22;;;23.30;91.50;;;;;;5071883;28;20488;-45
2022/09/01 10:37:49;;;;;;;3.03;1.70;;;23.30;91.70;;;;;;5072023;28;20063;-44
2022/09/01 10:40:19;;;;;;;3.25;1.77;;;23.40;91.50;;;;;;5071812;28;20120;-45
2022/09/01 10:42:52;;;;;;;5.13;2.67;;;23.50;91.20;;;;;;5071327;28;20107;-45
2022/09/01 10:45:37;;;;;;;4.93;2.42;;;23.60;91.20;;;;;;5071654;28;20016;-45
2022/09/01 10:48:20;;;;;;;6.25;2.28;;;23.50;91.20;;;;;;5071487;28;20071;-44
2022/09/01 10:51:13;;;;;;;6.30;2.53;;;23.50;91.40;;;;;;5071306;28;20024;-45
2022/09/01 10:53:40;;;;;;;5.68;1.90;;;23.40;91.30;;;;;;5070954;28;20036;-45
2022/09/01 10:56:11;;;;;;;6.30;1.98;;;23.40;91.20;;;;;;5071592;28;20514;-44
2022/09/01 10:58:58;;;;;;;1.90;1.70;;;23.50;91.70;;;;;;5071141;28;20123;-43
2022/09/01 11:01:42;;;;;;;4.03;2.00;;;23.70;91.20;;;;;;5071602;28;20029;-44
2022/09/01 11:04:12;;;;;;;6.32;2.20;;;23.70;91.10;;;;;;5071442;28;20029;-44
2022/09/01 11:06:40;;;;;;;4.20;1.80;;;23.60;90.80;;;;;;5071721;28;20017;-46
2022/09/01 11:09:18;;;;;;;1.85;1.73;;;23.60;91.10;;;;;;5071467;28;20539;-44
2022/09/01 11:12:04;;;;;;;5.75;2.10;;;23.80;91.00;;;;;;5071504;28;20733;-45
2022/09/01 11:14:34;;;;;;;9.70;2.40;;;23.90;90.20;;;;;;5071377;28;20032;-44
2022/09/01 11:17:30;;;;;;;2.63;2.08;;;23.90;89.10;;;;;;5071291;28;20021;-43
2022/09/01 11:20:07;;;;;;;6.50;1.90;;;24.00;89.20;;;;;;5071208;28;20016;-43
2022/09/01 11:22:43;;;;;;;2.00;1.90;;;23.90;89.20;;;;;;5070871;28;20021;-44
2022/09/01 11:25:31;;;;;;;2.00;1.77;;;24.00;97.20;;;;;;5071567;28;20024;-45
2022/09/01 11:28:00;;;;;;;1.88;1.75;;;24.00;97.30;;;;;;5071295;28;20025;-46
2022/09/01 11:30:54;;;;;;;4.90;1.60;;;23.80;97.40;;;;;;5073724;28;20024;-45
2022/09/01 11:33:28;;;;;;;1.80;1.70;;;23.60;97.80;;;;;;5075157;28;20017;-48
2022/09/01 11:36:00;;;;;;;4.10;1.60;;;23.50;97.90;;;;;;5074930;28;20488;-44
2022/09/01 11:38:27;;;;;;;3.45;2.00;;;23.50;98.10;;;;;;5075045;28;20032;-45
2022/09/01 11:40:56;;;;;;;2.22;1.92;;;23.50;98.40;;;;;;5074947;28;20033;-46
2022/09/01 11:43:24;;;;;;;4.35;1.88;;;23.50;94.60;;;;;;5074701;28;20032;-43
2022/09/01 11:46:11;;;;;;;3.85;2.08;;;23.50;93.90;;;;;;5074848;28;20021;-40
2022/09/01 11:48:38;;;;;;;2.45;2.00;;;23.60;92.90;;;;;;5074720;28;20029;-45
2022/09/01 11:51:04;;;;;;;2.72;1.80;;;23.70;92.90;;;;;;5074299;28;20044;-46
2022/09/01 11:53:30;;;;;;;2.97;1.80;;;23.60;97.70;;;;;;5074483;28;20054;-42
2022/09/01 11:56:12;;;;;;;2.83;1.42;;;23.50;96.00;;;;;;5074658;28;20450;-44
2022/09/01 11:58:38;;;;;;;3.30;1.85;;;23.60;89.40;;;;;;5074564;28;20024;-43
2022/09/01 12:01:13;;;;;;;2.53;1.80;;;23.70;87.70;;;;;;5074518;28;20107;-42
2022/09/01 12:03:39;;;;;;;1.40;1.40;;;23.80;88.10;;;;;;5074076;28;20044;-42
2022/09/01 12:06:08;;;;;;;3.35;1.50;;;23.80;86.40;;;;;;5056444;28;20027;-45
2022/09/01 12:08:38;;;;;;;2.00;1.52;;;23.90;90.40;;;;;;5056411;28;20036;-45
2022/09/01 12:11:10;;;;;;;1.50;1.40;;;23.90;88.50;;;;;;5074444;28;20031;-42
2022/09/01 12:13:37;;;;;;;3.28;1.60;;;23.90;84.50;;;;;;5074035;28;20085;-40
2022/09/01 12:16:06;;;;;;;3.95;1.60;;;23.90;85.30;;;;;;5074352;28;20032;-43
2022/09/01 12:18:42;;;;;;;1.92;1.83;;;24.00;85.70;;;;;;5074198;28;20445;-45
2022/09/01 12:21:26;;;;;;;4.22;1.60;;;24.20;85.10;;;;;;5074430;28;20021;-43
2022/09/01 12:24:08;;;;;;;4.25;1.73;;;24.20;85.50;;;;;;5074039;28;20021;-42
2022/09/01 12:26:33;;;;;;;2.40;1.65;;;24.00;84.70;;;;;;5074194;28;20040;-47
2022/09/01 12:28:59;;;;;;;2.03;1.65;;;24.10;84.70;;;;;;5074103;28;20588;-41
2022/09/01 12:31:25;;;;;;;9.18;1.88;;;24.20;84.20;;;;;;5073935;28;20056;-44
2022/09/01 12:33:53;;;;;;;3.10;1.50;;;24.20;83.50;;;;;;5074234;28;20025;-43
2022/09/01 12:36:29;;;;;;;3.10;1.80;;;24.20;84.70;;;;;;5074294;28;20384;-43
2022/09/01 12:39:18;;;;;;;2.72;1.70;;;24.40;85.00;;;;;;5073766;28;20025;-45
2022/09/01 12:41:46;;;;;;;5.05;1.60;;;24.40;84.30;;;;;;5073497;28;20480;-43
2022/09/01 12:44:40;;;;;;;8.90;1.40;;;24.30;83.90;;;;;;5073578;28;20017;-43
2022/09/01 12:47:14;;;;;;;3.25;1.25;;;24.40;83.40;;;;;;5073711;28;20028;-46
2022/09/01 12:49:43;;;;;;;3.20;1.83;;;24.20;83.30;;;;;;5073583;28;20025;-43
2022/09/01 12:52:21;;;;;;;3.72;1.50;;;24.40;84.00;;;;;;5073162;28;20028;-42
2022/09/01 12:54:49;;;;;;;4.22;1.88;;;24.40;81.90;;;;;;5073555;28;20021;-49
2022/09/01 12:57:28;;;;;;;1.65;1.55;;;24.60;82.30;;;;;;5072803;28;20028;-44
2022/09/01 13:00:09;;;;;;;5.72;1.90;;;24.70;82.10;;;;;;5073616;28;20404;-45
2022/09/01 13:02:38;;;;;;;1.95;1.25;;;24.70;82.30;;;;;;5073479;28;20021;-44
2022/09/01 13:05:28;;;;;;;1.83;1.73;;;24.70;82.40;;;;;;5073265;28;20024;-43
2022/09/01 13:08:00;;;;;;;4.78;1.50;;;24.60;82.50;;;;;;5073577;28;20099;-45